Sainte-Agathe, Canada
Current Conditions -  °F | °C
As of 11:36 AM on Thursday 23 Oct 2014 (Local Time) from CYMX Reporting Station
Light Rain Light Rain  
Wind Chill: 43°   Ceiling: 2200
Heat Index: 48°   Visibility: 15mi
Dew Point: 37°   Wind: 14mph
Humidity: 66%   Direction: 60°ENE
Pressure: 30.08"   Gusts: 21mph
Location:  46.03°N, 74.28°W
Report Text: CYMX 231536Z 06012G18KT 010V090 15SM -RA BKN022 OVC030 09/03 A3008 RMK SC7SC1 SLP190
Loading
Personal Weather Stations






























Interactive Weather Map
Tropical Storm Tracking
New forecast layout! Learn more

10-Day Weather Forecast

Advertisements
Track Severe Weather on mobile